createdAt,value
2017-12-31T00:01:26.746Z,7.77
2017-12-31T00:03:55.554Z,10.70
2017-12-31T00:06:23.884Z,11.17
2017-12-31T00:08:52.998Z,7.40
2017-12-31T00:11:21.532Z,8.13
2017-12-31T00:13:50.806Z,8.33
2017-12-31T00:16:19.317Z,10.70
2017-12-31T00:18:48.013Z,11.93
2017-12-31T00:21:16.875Z,10.63
2017-12-31T00:23:45.561Z,11.07
2017-12-31T00:26:15.025Z,6.30
2017-12-31T00:28:44.156Z,7.70
2017-12-31T00:31:12.877Z,10.40
2017-12-31T00:33:42.340Z,10.57
2017-12-31T00:36:10.817Z,11.50
2017-12-31T00:38:39.182Z,13.60
2017-12-31T00:41:09.008Z,11.00
2017-12-31T00:43:38.257Z,10.50
2017-12-31T00:46:07.967Z,9.83
2017-12-31T00:48:36.305Z,7.37
2017-12-31T00:51:05.889Z,11.70
2017-12-31T00:53:37.121Z,11.03
2017-12-31T00:56:07.836Z,10.43
2017-12-31T00:58:37.361Z,8.90
2017-12-31T01:01:05.832Z,11.43
2017-12-31T01:03:34.561Z,6.77
2017-12-31T01:06:03.059Z,11.10
2017-12-31T01:08:31.546Z,7.67
2017-12-31T01:11:00.156Z,10.03
2017-12-31T01:13:28.848Z,10.30
2017-12-31T01:15:59.088Z,13.37
2017-12-31T01:18:27.580Z,12.57
2017-12-31T01:20:57.296Z,10.17
2017-12-31T01:23:27.246Z,7.77
2017-12-31T01:25:56.513Z,7.73
2017-12-31T01:28:25.711Z,13.83
2017-12-31T01:30:54.498Z,12.63
2017-12-31T01:33:23.229Z,11.23
2017-12-31T01:35:52.230Z,8.90
2017-12-31T01:38:21.666Z,10.53
2017-12-31T01:40:50.888Z,15.97
2017-12-31T01:43:19.957Z,10.73
2017-12-31T01:45:49.207Z,9.93
2017-12-31T01:48:17.793Z,9.70
2017-12-31T01:50:46.327Z,4.87
2017-12-31T01:53:14.756Z,19.43
2017-12-31T01:55:43.951Z,9.53
2017-12-31T02:00:56.787Z,15.97
2017-12-31T02:03:28.031Z,7.77
2017-12-31T02:05:56.893Z,10.17
2017-12-31T02:08:25.360Z,7.90
2017-12-31T02:10:54.361Z,11.70
2017-12-31T02:13:23.688Z,12.07
2017-12-31T02:15:52.520Z,9.57
2017-12-31T02:18:21.352Z,11.60
2017-12-31T02:20:50.133Z,12.10
2017-12-31T02:23:18.460Z,9.10
2017-12-31T02:25:46.824Z,12.37
2017-12-31T02:28:15.592Z,12.70
2017-12-31T02:30:44.128Z,15.03
2017-12-31T02:33:13.445Z,10.10
2017-12-31T02:35:42.428Z,10.93
2017-12-31T02:38:11.681Z,13.30
2017-12-31T02:40:40.650Z,10.90
2017-12-31T02:43:09.352Z,11.87
2017-12-31T02:45:37.665Z,10.80
2017-12-31T02:48:05.811Z,7.70
2017-12-31T02:50:34.381Z,14.07
2017-12-31T02:53:02.625Z,13.00
2017-12-31T02:55:31.497Z,5.70
2017-12-31T02:58:01.057Z,10.03
2017-12-31T03:00:29.320Z,16.33
2017-12-31T03:02:58.228Z,10.27
2017-12-31T03:05:26.408Z,11.40
2017-12-31T03:07:56.132Z,8.40
2017-12-31T03:10:24.824Z,16.73
2017-12-31T03:12:53.201Z,11.97
2017-12-31T03:15:21.993Z,16.90
2017-12-31T03:17:51.567Z,8.50
2017-12-31T03:20:20.912Z,7.70
2017-12-31T03:22:50.580Z,13.50
2017-12-31T03:25:19.325Z,17.43
2017-12-31T03:27:47.544Z,10.33
2017-12-31T03:30:16.659Z,6.40
2017-12-31T03:32:45.409Z,9.13
2017-12-31T03:35:15.236Z,9.23
2017-12-31T03:37:44.844Z,13.00
2017-12-31T03:40:13.201Z,13.37
2017-12-31T03:42:42.837Z,10.43
2017-12-31T03:45:11.448Z,9.97
2017-12-31T03:47:40.661Z,13.00
2017-12-31T03:50:10.552Z,11.10
2017-12-31T03:52:38.915Z,11.77
2017-12-31T03:55:07.421Z,10.90
2017-12-31T03:57:35.671Z,11.27
2017-12-31T04:00:06.172Z,15.53
2017-12-31T04:02:36.438Z,12.03
2017-12-31T04:05:05.456Z,12.37
2017-12-31T04:07:33.676Z,9.87
2017-12-31T04:10:02.950Z,10.23
2017-12-31T04:12:33.312Z,10.40
2017-12-31T04:15:02.921Z,8.13
2017-12-31T04:17:31.356Z,10.97
2017-12-31T04:20:00.488Z,12.50
2017-12-31T04:22:29.900Z,11.07
2017-12-31T04:24:59.228Z,10.27
2017-12-31T04:27:27.413Z,7.60
2017-12-31T04:29:56.009Z,13.73
2017-12-31T04:32:24.438Z,9.13
2017-12-31T04:34:54.432Z,11.43
2017-12-31T04:37:22.778Z,11.07
2017-12-31T04:39:52.028Z,11.23
2017-12-31T04:42:21.482Z,9.93
2017-12-31T04:44:49.997Z,8.53
2017-12-31T04:47:18.348Z,10.97
2017-12-31T04:49:47.452Z,10.83
2017-12-31T04:52:15.693Z,9.67
2017-12-31T04:54:44.601Z,10.77
2017-12-31T04:57:14.201Z,12.40
2017-12-31T04:59:42.385Z,7.90
2017-12-31T05:02:13.036Z,13.90
2017-12-31T05:04:41.518Z,9.87
2017-12-31T05:07:11.198Z,8.03
2017-12-31T05:09:39.968Z,10.00
2017-12-31T05:12:09.140Z,12.40
2017-12-31T05:14:38.276Z,8.60
2017-12-31T05:17:08.725Z,7.00
2017-12-31T05:19:37.083Z,14.20
2017-12-31T05:22:06.512Z,8.40
2017-12-31T05:24:35.298Z,9.07
2017-12-31T05:27:04.632Z,12.20
2017-12-31T05:29:37.427Z,12.53
2017-12-31T05:32:05.965Z,12.40
2017-12-31T05:34:34.356Z,8.07
2017-12-31T05:37:03.391Z,11.43
2017-12-31T05:39:32.000Z,7.60
2017-12-31T05:42:00.413Z,17.37
2017-12-31T05:44:29.356Z,12.60
2017-12-31T05:46:57.745Z,6.87
2017-12-31T05:49:26.992Z,14.30
2017-12-31T05:51:55.872Z,10.37
2017-12-31T05:54:28.937Z,8.00
2017-12-31T05:56:57.774Z,13.40
2017-12-31T05:59:27.480Z,10.77
2017-12-31T06:01:57.144Z,11.67
2017-12-31T06:04:27.693Z,17.67
2017-12-31T06:06:56.416Z,12.53
2017-12-31T06:09:25.388Z,10.60
2017-12-31T06:11:53.789Z,8.63
2017-12-31T06:14:23.089Z,9.00
2017-12-31T06:16:51.449Z,15.53
2017-12-31T06:19:21.445Z,14.27
2017-12-31T06:21:51.119Z,10.30
2017-12-31T06:24:20.576Z,13.03
2017-12-31T06:26:49.498Z,8.53
2017-12-31T06:29:19.355Z,9.33
2017-12-31T06:31:49.830Z,8.03
2017-12-31T06:34:19.673Z,8.10
2017-12-31T06:36:48.358Z,11.87
2017-12-31T06:39:17.496Z,12.13
2017-12-31T06:41:47.190Z,8.80
2017-12-31T06:44:15.566Z,8.10
2017-12-31T06:46:44.120Z,7.37
2017-12-31T06:49:13.494Z,13.47
2017-12-31T06:51:42.526Z,13.60
2017-12-31T06:54:11.000Z,8.03
2017-12-31T06:56:40.152Z,11.23
2017-12-31T06:59:09.054Z,12.10
2017-12-31T07:01:38.465Z,12.90
2017-12-31T07:04:08.436Z,10.80
2017-12-31T07:06:37.567Z,10.30
2017-12-31T07:09:06.266Z,11.40
2017-12-31T07:11:34.949Z,13.03
2017-12-31T07:14:04.395Z,10.43
2017-12-31T07:16:32.662Z,5.33
2017-12-31T07:19:01.159Z,10.90
2017-12-31T07:21:29.712Z,9.03
2017-12-31T07:23:58.141Z,8.37
2017-12-31T07:26:28.396Z,12.40
2017-12-31T07:28:58.621Z,11.80
2017-12-31T07:31:28.309Z,7.90
2017-12-31T07:33:58.152Z,14.80
2017-12-31T07:36:29.273Z,16.27
2017-12-31T07:38:58.100Z,15.10
2017-12-31T07:41:26.509Z,16.10
2017-12-31T07:43:54.673Z,12.43
2017-12-31T07:46:24.989Z,11.73
2017-12-31T07:48:53.521Z,12.60
2017-12-31T07:51:22.313Z,10.93
2017-12-31T07:53:51.657Z,10.67
2017-12-31T07:56:21.782Z,10.30
2017-12-31T07:58:53.177Z,12.03
2017-12-31T08:01:22.200Z,11.23
2017-12-31T08:03:51.057Z,10.10
2017-12-31T08:06:21.198Z,9.20
2017-12-31T08:08:49.445Z,11.97
2017-12-31T08:11:18.377Z,12.20
2017-12-31T08:13:46.871Z,14.13
2017-12-31T08:16:14.989Z,16.80
2017-12-31T08:18:43.416Z,15.20
2017-12-31T08:21:11.916Z,12.47
2017-12-31T08:23:40.612Z,12.20
2017-12-31T08:26:10.508Z,12.57
2017-12-31T08:28:40.001Z,12.73
2017-12-31T08:31:08.400Z,16.27
2017-12-31T08:33:37.265Z,11.10
2017-12-31T08:36:07.853Z,12.00
2017-12-31T08:38:36.352Z,13.10
2017-12-31T08:41:04.731Z,15.07
2017-12-31T08:43:33.672Z,12.47
2017-12-31T08:46:02.898Z,17.10
2017-12-31T08:48:31.916Z,13.80
2017-12-31T08:51:01.023Z,10.63
2017-12-31T08:53:30.697Z,14.73
2017-12-31T08:55:59.420Z,16.50
2017-12-31T08:58:27.904Z,9.10
2017-12-31T09:00:56.547Z,15.17
2017-12-31T09:03:24.825Z,10.30
2017-12-31T09:05:53.622Z,10.17
2017-12-31T09:08:25.039Z,8.60
2017-12-31T09:10:54.445Z,8.53
2017-12-31T09:13:22.780Z,11.77
2017-12-31T09:15:51.466Z,8.20
2017-12-31T09:18:19.989Z,6.60
2017-12-31T09:20:50.940Z,5.07
2017-12-31T09:23:20.241Z,6.77
2017-12-31T09:25:48.430Z,5.70
2017-12-31T09:28:17.076Z,5.90
2017-12-31T09:30:47.045Z,3.63
2017-12-31T09:33:15.668Z,3.93
2017-12-31T09:35:44.112Z,4.87
2017-12-31T09:38:12.541Z,5.20
2017-12-31T09:40:42.708Z,2.83
2017-12-31T09:43:11.705Z,3.93
2017-12-31T09:45:40.664Z,4.00
2017-12-31T09:48:09.568Z,4.23
2017-12-31T09:50:38.680Z,2.90
2017-12-31T09:53:07.416Z,4.43
2017-12-31T09:55:35.924Z,2.40
2017-12-31T09:58:06.808Z,1.60
2017-12-31T10:00:35.213Z,2.43
2017-12-31T10:03:03.569Z,7.07
2017-12-31T10:05:32.506Z,1.90
2017-12-31T10:08:01.729Z,1.57
2017-12-31T10:10:31.167Z,2.13
2017-12-31T10:13:00.584Z,3.20
2017-12-31T10:15:29.734Z,1.70
2017-12-31T10:17:58.236Z,1.20
2017-12-31T10:20:27.664Z,1.30
2017-12-31T10:22:56.368Z,2.33
2017-12-31T10:25:26.053Z,1.97
2017-12-31T10:27:54.936Z,1.83
2017-12-31T10:30:23.702Z,1.70
2017-12-31T10:32:51.836Z,1.50
2017-12-31T10:35:21.081Z,2.23
2017-12-31T10:37:50.125Z,1.50
2017-12-31T10:40:19.536Z,1.80
2017-12-31T10:42:48.068Z,1.67
2017-12-31T10:45:18.464Z,1.67
2017-12-31T10:47:47.236Z,1.60
2017-12-31T10:50:15.957Z,3.80
2017-12-31T10:52:44.260Z,1.83
2017-12-31T10:55:13.248Z,1.73
2017-12-31T10:57:42.086Z,1.90
2017-12-31T11:00:10.529Z,2.67
2017-12-31T11:02:41.868Z,2.80
2017-12-31T11:05:11.154Z,1.87
2017-12-31T11:07:39.626Z,2.00
2017-12-31T11:10:07.917Z,2.30
2017-12-31T11:12:36.285Z,2.60
2017-12-31T11:15:05.197Z,2.40
2017-12-31T11:17:33.607Z,1.97
2017-12-31T11:20:03.577Z,2.57
2017-12-31T11:22:32.149Z,1.60
2017-12-31T11:25:03.893Z,2.57
2017-12-31T11:27:32.524Z,2.50
2017-12-31T11:30:02.309Z,2.53
2017-12-31T11:32:32.262Z,2.07
2017-12-31T11:35:01.530Z,3.07
2017-12-31T11:37:30.485Z,2.20
2017-12-31T11:39:59.548Z,1.47
2017-12-31T11:42:28.333Z,2.60
2017-12-31T11:44:56.478Z,2.20
2017-12-31T11:47:24.996Z,2.60
2017-12-31T11:49:53.181Z,3.83
2017-12-31T11:52:21.661Z,2.77
2017-12-31T11:54:52.881Z,4.30
2017-12-31T11:57:22.157Z,2.10
2017-12-31T11:59:50.617Z,3.60
2017-12-31T12:02:20.946Z,4.60
2017-12-31T12:04:50.309Z,5.53
2017-12-31T12:07:18.704Z,2.30
2017-12-31T12:09:47.477Z,3.00
2017-12-31T12:12:15.937Z,3.37
2017-12-31T12:14:45.680Z,5.80
2017-12-31T12:17:14.916Z,3.77
2017-12-31T12:19:43.328Z,7.67
2017-12-31T12:22:12.184Z,9.13
2017-12-31T12:24:41.141Z,9.10
2017-12-31T12:27:10.363Z,4.60
2017-12-31T12:29:39.644Z,5.10
2017-12-31T12:32:07.994Z,5.93
2017-12-31T12:34:37.223Z,4.03
2017-12-31T12:37:05.557Z,2.83
2017-12-31T12:39:34.457Z,7.90
2017-12-31T12:42:02.976Z,7.00
2017-12-31T12:44:32.818Z,2.80
2017-12-31T12:47:01.332Z,3.77
2017-12-31T12:49:30.119Z,5.13
2017-12-31T12:51:59.621Z,7.17
2017-12-31T12:54:28.405Z,5.63
2017-12-31T12:56:56.945Z,6.93
2017-12-31T12:59:25.585Z,4.80
2017-12-31T13:01:54.910Z,5.33
2017-12-31T13:04:25.072Z,4.53
2017-12-31T13:06:53.845Z,5.37
2017-12-31T13:09:22.048Z,6.43
2017-12-31T13:11:50.449Z,6.33
2017-12-31T13:14:19.245Z,5.43
2017-12-31T13:16:47.836Z,4.50
2017-12-31T13:19:16.779Z,5.70
2017-12-31T13:21:45.158Z,3.97
2017-12-31T13:24:14.124Z,2.90
2017-12-31T13:26:43.789Z,3.33
2017-12-31T13:29:12.170Z,7.33
2017-12-31T13:31:40.302Z,6.77
2017-12-31T13:34:08.865Z,4.83
2017-12-31T13:36:38.101Z,3.93
2017-12-31T13:39:06.951Z,5.03
2017-12-31T13:41:36.175Z,4.67
2017-12-31T13:44:04.315Z,3.40
2017-12-31T13:46:32.456Z,3.90
2017-12-31T13:49:01.017Z,3.67
2017-12-31T13:51:31.433Z,4.57
2017-12-31T13:54:02.757Z,4.27
2017-12-31T13:56:31.733Z,3.60
2017-12-31T13:59:00.920Z,6.70
2017-12-31T14:01:29.704Z,8.00
2017-12-31T14:03:58.849Z,6.70
2017-12-31T14:06:27.736Z,5.80
2017-12-31T14:08:55.856Z,8.27
2017-12-31T14:11:23.968Z,5.77
2017-12-31T14:13:52.104Z,5.77
2017-12-31T14:16:20.248Z,4.20
2017-12-31T14:18:48.372Z,4.23
2017-12-31T14:21:18.013Z,5.63
2017-12-31T14:23:46.885Z,4.17
2017-12-31T14:26:16.393Z,4.27
2017-12-31T14:28:44.528Z,4.50
2017-12-31T14:31:12.704Z,6.53
2017-12-31T14:33:40.831Z,8.40
2017-12-31T14:36:09.707Z,8.90
2017-12-31T14:38:37.845Z,5.50
2017-12-31T14:41:05.993Z,4.40
2017-12-31T14:43:34.112Z,5.17
2017-12-31T14:46:02.641Z,4.67
2017-12-31T14:48:30.839Z,4.87
2017-12-31T14:50:58.988Z,4.37
2017-12-31T14:53:27.109Z,3.63
2017-12-31T14:55:55.240Z,6.43
2017-12-31T14:58:23.384Z,3.73
2017-12-31T15:00:52.252Z,4.43
2017-12-31T15:03:20.437Z,3.97
2017-12-31T15:05:48.548Z,4.13
2017-12-31T15:08:16.957Z,3.97
2017-12-31T15:10:45.140Z,6.00
2017-12-31T15:13:13.281Z,5.03
2017-12-31T15:15:41.420Z,4.20
2017-12-31T15:18:09.616Z,3.77
2017-12-31T15:20:38.522Z,4.10
2017-12-31T15:23:06.680Z,4.43
2017-12-31T15:25:35.560Z,5.73
2017-12-31T15:28:03.724Z,3.50
2017-12-31T15:30:31.860Z,5.83
2017-12-31T15:33:00.316Z,5.40
2017-12-31T15:35:28.488Z,5.23
2017-12-31T15:37:56.613Z,5.40
2017-12-31T15:40:24.804Z,6.60
2017-12-31T15:42:53.685Z,5.73
2017-12-31T15:45:21.833Z,8.53
2017-12-31T15:47:50.006Z,6.33
2017-12-31T15:50:18.162Z,4.97
2017-12-31T15:52:46.305Z,5.40
2017-12-31T15:55:15.176Z,3.33
2017-12-31T15:57:43.313Z,4.70
2017-12-31T16:00:11.493Z,3.80
2017-12-31T16:02:39.647Z,3.87
2017-12-31T16:05:07.785Z,2.83
2017-12-31T16:07:36.376Z,4.47
2017-12-31T16:10:05.246Z,3.53
2017-12-31T16:12:33.371Z,2.63
2017-12-31T16:15:01.535Z,3.50
2017-12-31T16:17:29.696Z,3.70
2017-12-31T16:19:58.608Z,4.07
2017-12-31T16:22:26.791Z,4.13
2017-12-31T16:24:54.925Z,4.80
2017-12-31T16:27:23.809Z,3.47
2017-12-31T16:29:53.116Z,4.07
2017-12-31T16:32:21.985Z,2.90
2017-12-31T16:34:50.152Z,2.23
2017-12-31T16:37:18.340Z,2.30
2017-12-31T16:39:46.484Z,4.10
2017-12-31T16:42:14.646Z,4.77
2017-12-31T16:44:42.761Z,5.17
2017-12-31T16:47:10.961Z,4.60
2017-12-31T16:49:39.139Z,4.10
2017-12-31T16:52:07.257Z,6.37
2017-12-31T16:54:35.694Z,4.90
2017-12-31T16:57:03.880Z,5.20
2017-12-31T16:59:32.694Z,4.40
2017-12-31T17:02:01.753Z,10.67
2017-12-31T17:04:31.072Z,8.03
2017-12-31T17:07:00.138Z,8.10
2017-12-31T17:09:29.712Z,7.40
2017-12-31T17:11:58.036Z,7.13
2017-12-31T17:14:26.464Z,6.37
2017-12-31T17:16:55.118Z,3.10
2017-12-31T17:19:24.946Z,3.10
2017-12-31T17:21:53.261Z,2.10
2017-12-31T17:24:22.419Z,1.80
2017-12-31T17:26:51.434Z,2.60
2017-12-31T17:29:20.328Z,1.73
2017-12-31T17:31:48.477Z,4.80
2017-12-31T17:34:17.086Z,3.47
2017-12-31T17:36:45.965Z,3.87
2017-12-31T17:39:14.492Z,3.57
2017-12-31T17:41:45.765Z,8.10
2017-12-31T17:44:14.653Z,11.80
2017-12-31T17:46:42.799Z,7.80
2017-12-31T17:49:11.669Z,10.33
2017-12-31T17:51:39.784Z,8.80
2017-12-31T17:54:07.964Z,6.17
2017-12-31T17:56:36.112Z,2.80
2017-12-31T17:59:05.033Z,2.77
2017-12-31T18:01:33.175Z,3.00
2017-12-31T18:04:01.313Z,5.33
2017-12-31T18:06:29.448Z,5.10
2017-12-31T18:08:57.908Z,6.80
2017-12-31T18:11:26.853Z,9.20
2017-12-31T18:13:55.027Z,7.03
2017-12-31T18:16:23.168Z,2.07
2017-12-31T18:18:51.296Z,1.83
2017-12-31T18:21:19.416Z,2.10
2017-12-31T18:23:47.558Z,3.20
2017-12-31T18:26:16.444Z,4.60
2017-12-31T18:28:44.568Z,4.10
2017-12-31T18:31:13.433Z,9.70
2017-12-31T18:33:42.702Z,4.77
2017-12-31T18:36:10.869Z,5.73
2017-12-31T18:38:38.989Z,5.03
2017-12-31T18:41:07.138Z,4.00
2017-12-31T18:43:36.022Z,10.63
2017-12-31T18:46:04.145Z,7.70
2017-12-31T18:48:32.568Z,4.90
2017-12-31T18:51:03.486Z,3.43
2017-12-31T18:53:31.620Z,5.27
2017-12-31T18:55:59.749Z,5.50
2017-12-31T18:58:28.076Z,7.93
2017-12-31T19:00:57.241Z,8.70
2017-12-31T19:03:27.129Z,8.50
2017-12-31T19:05:55.771Z,9.97
2017-12-31T19:08:25.030Z,8.67
2017-12-31T19:10:56.036Z,7.63
2017-12-31T19:13:24.633Z,7.30
2017-12-31T19:15:55.405Z,9.70
2017-12-31T19:18:23.935Z,24.73
2017-12-31T19:20:52.790Z,25.97
2017-12-31T19:23:21.412Z,19.30
2017-12-31T19:25:49.945Z,13.60
2017-12-31T19:28:18.473Z,12.27
2017-12-31T19:30:47.229Z,8.83
2017-12-31T19:33:16.805Z,10.80
2017-12-31T19:35:45.289Z,7.17
2017-12-31T19:38:14.312Z,5.10
2017-12-31T19:40:43.214Z,6.20
2017-12-31T19:43:11.408Z,13.57
2017-12-31T19:45:39.825Z,18.00
2017-12-31T19:48:08.593Z,15.17
2017-12-31T19:50:37.316Z,16.83
2017-12-31T19:53:05.456Z,13.63
2017-12-31T19:55:33.996Z,8.00
2017-12-31T19:58:02.177Z,6.70
2017-12-31T20:00:30.296Z,9.97
2017-12-31T20:02:58.432Z,8.97
2017-12-31T20:05:26.569Z,8.90
2017-12-31T20:07:55.412Z,8.67
2017-12-31T20:10:23.532Z,8.20
2017-12-31T20:12:52.441Z,9.10
2017-12-31T20:15:21.306Z,9.57
2017-12-31T20:17:49.640Z,8.10
2017-12-31T20:20:17.760Z,10.33
2017-12-31T20:22:46.608Z,10.93
2017-12-31T20:25:15.031Z,11.80
2017-12-31T20:27:43.900Z,10.23
2017-12-31T20:30:12.025Z,10.90
2017-12-31T20:32:40.155Z,17.87
2017-12-31T20:35:09.772Z,33.40
2017-12-31T20:37:37.914Z,30.30
2017-12-31T20:40:06.332Z,16.80
2017-12-31T20:42:35.230Z,16.97
2017-12-31T20:45:04.125Z,18.00
2017-12-31T20:47:33.077Z,10.00
2017-12-31T20:50:03.769Z,7.60
2017-12-31T20:52:32.679Z,14.97
2017-12-31T20:55:02.572Z,16.53
2017-12-31T20:57:35.593Z,10.60
2017-12-31T21:00:05.436Z,9.83
2017-12-31T21:02:35.017Z,11.10
2017-12-31T21:05:04.453Z,10.57
2017-12-31T21:07:33.089Z,11.07
2017-12-31T21:10:02.578Z,9.90
2017-12-31T21:13:02.353Z,8.07
2017-12-31T21:15:31.008Z,6.80
2017-12-31T21:17:59.770Z,7.60
2017-12-31T21:20:28.077Z,5.10
2017-12-31T21:22:57.800Z,9.77
2017-12-31T21:25:27.357Z,13.70
2017-12-31T21:27:56.497Z,7.93
2017-12-31T21:30:25.956Z,18.90
2017-12-31T21:32:54.341Z,22.43
2017-12-31T21:35:23.008Z,17.67
2017-12-31T21:37:52.465Z,26.33
2017-12-31T21:40:20.649Z,26.50
2017-12-31T21:42:49.949Z,24.83
2017-12-31T21:45:19.033Z,26.33
2017-12-31T21:47:47.778Z,23.80
2017-12-31T21:50:17.888Z,20.13
2017-12-31T21:52:48.343Z,23.10
2017-12-31T21:55:17.003Z,19.33
2017-12-31T21:57:46.890Z,14.97
2017-12-31T22:00:16.113Z,19.53
2017-12-31T22:02:46.768Z,26.23
2017-12-31T22:05:16.489Z,21.70
2017-12-31T22:07:45.236Z,24.67
2017-12-31T22:10:15.594Z,26.10
2017-12-31T22:12:44.788Z,27.07
2017-12-31T22:15:13.772Z,19.10
2017-12-31T22:17:42.912Z,19.20
2017-12-31T22:20:11.245Z,21.83
2017-12-31T22:22:40.698Z,17.23
2017-12-31T22:25:09.770Z,15.80
2017-12-31T22:27:40.700Z,11.73
2017-12-31T22:30:09.183Z,11.77
2017-12-31T22:32:38.261Z,7.33
2017-12-31T22:35:09.251Z,9.10
2017-12-31T22:37:37.813Z,10.43
2017-12-31T22:40:06.320Z,10.43
2017-12-31T22:42:35.706Z,15.70
2017-12-31T22:45:04.308Z,13.77
2017-12-31T22:47:32.484Z,13.27
2017-12-31T22:50:02.148Z,13.17
2017-12-31T22:52:31.215Z,14.33
2017-12-31T22:54:59.556Z,13.30
2017-12-31T22:57:27.875Z,39.47
2017-12-31T22:59:58.353Z,30.37
2017-12-31T23:02:27.014Z,208.50
2017-12-31T23:04:57.231Z,174.80
2017-12-31T23:07:26.756Z,186.13
2017-12-31T23:09:55.739Z,222.83
2017-12-31T23:12:24.220Z,291.47
2017-12-31T23:14:52.765Z,464.43
2017-12-31T23:17:21.930Z,490.67
2017-12-31T23:19:52.036Z,632.70
2017-12-31T23:22:20.840Z,504.93
2017-12-31T23:24:49.173Z,443.20
2017-12-31T23:27:19.061Z,359.73
2017-12-31T23:29:47.482Z,376.17
2017-12-31T23:32:18.653Z,335.47
2017-12-31T23:34:47.394Z,237.27
2017-12-31T23:37:16.354Z,150.13
2017-12-31T23:39:45.615Z,126.20
2017-12-31T23:42:14.009Z,113.10
2017-12-31T23:44:42.528Z,75.07
2017-12-31T23:47:11.199Z,67.00
2017-12-31T23:49:40.125Z,64.57
2017-12-31T23:52:11.906Z,55.53
2017-12-31T23:54:40.297Z,50.93
2017-12-31T23:57:08.440Z,36.43
2017-12-31T23:59:36.761Z,35.37
